sensor_id;sensor_type;location;lat;lon;timestamp;temperature;humidity
13375;DHT22;6756;51.354;15.754;2022-12-29T00:01:15;6.40;99.90
13375;DHT22;6756;51.354;15.754;2022-12-29T00:05:16;6.40;99.90
13375;DHT22;6756;51.354;15.754;2022-12-29T00:09:17;6.50;99.90
13375;DHT22;6756;51.354;15.754;2022-12-29T00:13:17;6.50;99.90
13375;DHT22;6756;51.354;15.754;2022-12-29T00:17:37;6.50;99.90
13375;DHT22;6756;51.354;15.754;2022-12-29T00:21:38;6.50;99.90
13375;DHT22;6756;51.354;15.754;2022-12-29T00:25:57;6.50;99.90
13375;DHT22;6756;51.354;15.754;2022-12-29T00:30:18;6.40;99.90
13375;DHT22;6756;51.354;15.754;2022-12-29T00:34:38;6.40;99.90
13375;DHT22;6756;51.354;15.754;2022-12-29T00:39:03;6.40;99.90
13375;DHT22;6756;51.354;15.754;2022-12-29T00:43:24;6.40;99.90
13375;DHT22;6756;51.354;15.754;2022-12-29T00:47:43;6.40;99.90
13375;DHT22;6756;51.354;15.754;2022-12-29T00:51:44;6.50;99.90
13375;DHT22;6756;51.354;15.754;2022-12-29T00:55:45;6.50;99.90
13375;DHT22;6756;51.354;15.754;2022-12-29T00:59:46;6.50;99.90
13375;DHT22;6756;51.354;15.754;2022-12-29T01:03:47;6.50;99.90
13375;DHT22;6756;51.354;15.754;2022-12-29T01:07:47;6.50;99.90
13375;DHT22;6756;51.354;15.754;2022-12-29T01:11:48;6.50;99.90
13375;DHT22;6756;51.354;15.754;2022-12-29T01:15:51;6.50;99.90
13375;DHT22;6756;51.354;15.754;2022-12-29T01:19:51;6.50;99.90
13375;DHT22;6756;51.354;15.754;2022-12-29T01:23:52;6.50;99.90
13375;DHT22;6756;51.354;15.754;2022-12-29T01:27:53;6.50;99.90
13375;DHT22;6756;51.354;15.754;2022-12-29T01:31:54;6.50;99.90
13375;DHT22;6756;51.354;15.754;2022-12-29T01:35:54;6.50;99.90
13375;DHT22;6756;51.354;15.754;2022-12-29T01:39:55;6.50;99.90
13375;DHT22;6756;51.354;15.754;2022-12-29T01:43:59;6.50;99.90
13375;DHT22;6756;51.354;15.754;2022-12-29T01:48:03;6.60;99.90
13375;DHT22;6756;51.354;15.754;2022-12-29T01:52:07;6.80;99.90
13375;DHT22;6756;51.354;15.754;2022-12-29T01:56:11;6.90;99.90
13375;DHT22;6756;51.354;15.754;2022-12-29T02:00:14;7.00;99.90
13375;DHT22;6756;51.354;15.754;2022-12-29T02:04:15;7.20;99.90
13375;DHT22;6756;51.354;15.754;2022-12-29T02:08:16;7.30;99.90
13375;DHT22;6756;51.354;15.754;2022-12-29T02:12:20;7.50;99.90
13375;DHT22;6756;51.354;15.754;2022-12-29T02:20:56;7.70;99.90
13375;DHT22;6756;51.354;15.754;2022-12-29T02:52:16;7.80;99.90
13375;DHT22;6756;51.354;15.754;2022-12-29T02:56:18;7.80;99.90
13375;DHT22;6756;51.354;15.754;2022-12-29T03:00:19;7.80;99.90
13375;DHT22;6756;51.354;15.754;2022-12-29T03:04:37;7.80;99.90
13375;DHT22;6756;51.354;15.754;2022-12-29T03:17:51;7.80;99.90
13375;DHT22;6756;51.354;15.754;2022-12-29T03:21:56;7.80;99.90
13375;DHT22;6756;51.354;15.754;2022-12-29T03:26:18;7.80;99.90
13375;DHT22;6756;51.354;15.754;2022-12-29T03:30:20;7.70;99.90
13375;DHT22;6756;51.354;15.754;2022-12-29T03:34:22;7.70;99.90
13375;DHT22;6756;51.354;15.754;2022-12-29T03:38:45;7.70;99.90
13375;DHT22;6756;51.354;15.754;2022-12-29T03:42:47;7.60;99.90
13375;DHT22;6756;51.354;15.754;2022-12-29T03:46:48;7.60;99.90
13375;DHT22;6756;51.354;15.754;2022-12-29T03:50:50;7.50;99.90
13375;DHT22;6756;51.354;15.754;2022-12-29T03:54:51;7.40;99.90
13375;DHT22;6756;51.354;15.754;2022-12-29T03:58:52;7.40;99.90
13375;DHT22;6756;51.354;15.754;2022-12-29T04:02:52;7.50;99.90
13375;DHT22;6756;51.354;15.754;2022-12-29T04:06:53;7.60;99.90
13375;DHT22;6756;51.354;15.754;2022-12-29T04:10:54;7.80;99.90
13375;DHT22;6756;51.354;15.754;2022-12-29T04:14:55;8.00;99.90
13375;DHT22;6756;51.354;15.754;2022-12-29T04:18:56;8.20;99.90
13375;DHT22;6756;51.354;15.754;2022-12-29T04:23:06;8.30;99.90
13375;DHT22;6756;51.354;15.754;2022-12-29T04:27:07;8.50;99.90
13375;DHT22;6756;51.354;15.754;2022-12-29T04:31:07;8.70;99.90
13375;DHT22;6756;51.354;15.754;2022-12-29T04:35:08;8.80;99.90
13375;DHT22;6756;51.354;15.754;2022-12-29T04:39:09;8.90;99.90
13375;DHT22;6756;51.354;15.754;2022-12-29T04:43:10;8.90;99.90
13375;DHT22;6756;51.354;15.754;2022-12-29T04:47:11;8.80;99.90
13375;DHT22;6756;51.354;15.754;2022-12-29T04:51:12;8.80;99.90
13375;DHT22;6756;51.354;15.754;2022-12-29T04:55:13;8.90;99.90
13375;DHT22;6756;51.354;15.754;2022-12-29T04:59:14;8.90;99.90
13375;DHT22;6756;51.354;15.754;2022-12-29T05:03:14;8.90;99.90
13375;DHT22;6756;51.354;15.754;2022-12-29T05:07:15;8.90;99.90
13375;DHT22;6756;51.354;15.754;2022-12-29T05:11:16;8.90;99.90
13375;DHT22;6756;51.354;15.754;2022-12-29T05:15:17;8.90;99.90
13375;DHT22;6756;51.354;15.754;2022-12-29T05:19:18;8.90;99.90
13375;DHT22;6756;51.354;15.754;2022-12-29T05:23:19;8.80;99.90
13375;DHT22;6756;51.354;15.754;2022-12-29T05:27:19;8.80;99.90
13375;DHT22;6756;51.354;15.754;2022-12-29T05:31:20;8.90;99.90
13375;DHT22;6756;51.354;15.754;2022-12-29T05:35:21;9.00;99.90
13375;DHT22;6756;51.354;15.754;2022-12-29T05:39:22;9.00;99.90
13375;DHT22;6756;51.354;15.754;2022-12-29T05:43:23;9.10;99.90
13375;DHT22;6756;51.354;15.754;2022-12-29T05:47:24;9.20;99.90
13375;DHT22;6756;51.354;15.754;2022-12-29T05:51:25;9.30;99.90
13375;DHT22;6756;51.354;15.754;2022-12-29T05:55:25;9.30;99.90
13375;DHT22;6756;51.354;15.754;2022-12-29T05:59:26;9.40;99.90
13375;DHT22;6756;51.354;15.754;2022-12-29T06:03:27;9.40;99.90
13375;DHT22;6756;51.354;15.754;2022-12-29T06:07:28;9.30;99.90
13375;DHT22;6756;51.354;15.754;2022-12-29T06:11:28;9.40;99.90
13375;DHT22;6756;51.354;15.754;2022-12-29T06:15:29;9.40;99.90
13375;DHT22;6756;51.354;15.754;2022-12-29T06:19:30;9.40;99.90
13375;DHT22;6756;51.354;15.754;2022-12-29T06:23:31;9.40;99.90
13375;DHT22;6756;51.354;15.754;2022-12-29T06:27:32;9.40;99.90
13375;DHT22;6756;51.354;15.754;2022-12-29T06:31:33;9.40;99.90
13375;DHT22;6756;51.354;15.754;2022-12-29T06:35:34;9.40;99.90
13375;DHT22;6756;51.354;15.754;2022-12-29T06:39:35;9.40;99.90
13375;DHT22;6756;51.354;15.754;2022-12-29T06:43:36;9.40;99.90
13375;DHT22;6756;51.354;15.754;2022-12-29T06:47:38;9.40;99.90
13375;DHT22;6756;51.354;15.754;2022-12-29T06:51:39;9.40;99.90
13375;DHT22;6756;51.354;15.754;2022-12-29T06:55:41;9.30;99.90
13375;DHT22;6756;51.354;15.754;2022-12-29T06:59:42;9.30;99.90
13375;DHT22;6756;51.354;15.754;2022-12-29T07:03:43;9.20;99.90
13375;DHT22;6756;51.354;15.754;2022-12-29T07:07:44;9.20;99.90
13375;DHT22;6756;51.354;15.754;2022-12-29T07:11:45;9.30;99.90
13375;DHT22;6756;51.354;15.754;2022-12-29T07:15:46;9.30;99.90
13375;DHT22;6756;51.354;15.754;2022-12-29T07:19:46;9.40;99.90
13375;DHT22;6756;51.354;15.754;2022-12-29T07:23:47;9.30;99.90
13375;DHT22;6756;51.354;15.754;2022-12-29T07:27:48;9.30;99.90
13375;DHT22;6756;51.354;15.754;2022-12-29T07:31:49;9.40;99.90
13375;DHT22;6756;51.354;15.754;2022-12-29T07:35:50;9.40;99.90
13375;DHT22;6756;51.354;15.754;2022-12-29T07:39:50;9.50;99.90
13375;DHT22;6756;51.354;15.754;2022-12-29T07:43:51;9.50;99.90
13375;DHT22;6756;51.354;15.754;2022-12-29T07:47:52;9.60;99.90
13375;DHT22;6756;51.354;15.754;2022-12-29T07:51:53;9.60;99.90
13375;DHT22;6756;51.354;15.754;2022-12-29T07:55:53;9.70;99.90
13375;DHT22;6756;51.354;15.754;2022-12-29T07:59:54;9.70;99.90
13375;DHT22;6756;51.354;15.754;2022-12-29T08:03:55;9.80;99.90
13375;DHT22;6756;51.354;15.754;2022-12-29T08:07:56;9.80;99.90
13375;DHT22;6756;51.354;15.754;2022-12-29T08:11:57;9.70;99.90
13375;DHT22;6756;51.354;15.754;2022-12-29T08:15:58;9.70;99.90
13375;DHT22;6756;51.354;15.754;2022-12-29T08:19:59;9.80;99.90
13375;DHT22;6756;51.354;15.754;2022-12-29T08:24:00;9.80;99.90
13375;DHT22;6756;51.354;15.754;2022-12-29T08:28:01;9.80;99.90
13375;DHT22;6756;51.354;15.754;2022-12-29T08:32:01;9.80;99.90
13375;DHT22;6756;51.354;15.754;2022-12-29T08:36:05;9.80;99.90
13375;DHT22;6756;51.354;15.754;2022-12-29T08:40:07;9.80;99.90
13375;DHT22;6756;51.354;15.754;2022-12-29T08:44:08;9.90;99.90
13375;DHT22;6756;51.354;15.754;2022-12-29T08:48:09;9.90;99.90
13375;DHT22;6756;51.354;15.754;2022-12-29T08:52:09;9.80;99.90
13375;DHT22;6756;51.354;15.754;2022-12-29T08:56:10;9.80;99.90
13375;DHT22;6756;51.354;15.754;2022-12-29T09:00:12;9.80;99.90
13375;DHT22;6756;51.354;15.754;2022-12-29T09:04:13;9.80;99.90
13375;DHT22;6756;51.354;15.754;2022-12-29T09:08:13;9.80;99.90
13375;DHT22;6756;51.354;15.754;2022-12-29T09:12:15;9.80;99.90
13375;DHT22;6756;51.354;15.754;2022-12-29T09:16:18;9.80;99.90
13375;DHT22;6756;51.354;15.754;2022-12-29T09:20:19;9.80;99.90
13375;DHT22;6756;51.354;15.754;2022-12-29T09:24:20;10.00;99.90
13375;DHT22;6756;51.354;15.754;2022-12-29T09:28:21;10.10;99.90
13375;DHT22;6756;51.354;15.754;2022-12-29T09:32:22;10.30;99.90
13375;DHT22;6756;51.354;15.754;2022-12-29T09:36:23;10.40;99.90
13375;DHT22;6756;51.354;15.754;2022-12-29T09:40:32;10.60;99.90
13375;DHT22;6756;51.354;15.754;2022-12-29T09:53:31;10.50;93.50
13375;DHT22;6756;51.354;15.754;2022-12-29T10:02:20;10.70;86.40
13375;DHT22;6756;51.354;15.754;2022-12-29T10:06:29;10.70;77.10
13375;DHT22;6756;51.354;15.754;2022-12-29T10:10:50;10.70;77.80
13375;DHT22;6756;51.354;15.754;2022-12-29T10:15:04;10.90;71.10
13375;DHT22;6756;51.354;15.754;2022-12-29T10:23:51;11.30;51.20
13375;DHT22;6756;51.354;15.754;2022-12-29T10:27:55;11.30;38.90
13375;DHT22;6756;51.354;15.754;2022-12-29T10:32:04;11.40;30.90
13375;DHT22;6756;51.354;15.754;2022-12-29T10:36:20;11.50;23.00
13375;DHT22;6756;51.354;15.754;2022-12-29T10:40:43;11.80;13.00
13375;DHT22;6756;51.354;15.754;2022-12-29T10:44:45;11.80;1.00
13375;DHT22;6756;51.354;15.754;2022-12-29T10:48:46;11.70;1.00
13375;DHT22;6756;51.354;15.754;2022-12-29T10:52:48;11.60;1.00
13375;DHT22;6756;51.354;15.754;2022-12-29T10:56:54;11.60;1.00
13375;DHT22;6756;51.354;15.754;2022-12-29T11:00:57;11.60;1.00
13375;DHT22;6756;51.354;15.754;2022-12-29T11:05:10;11.50;1.00
13375;DHT22;6756;51.354;15.754;2022-12-29T11:09:29;11.40;1.00
13375;DHT22;6756;51.354;15.754;2022-12-29T11:13:34;11.30;1.00
13375;DHT22;6756;51.354;15.754;2022-12-29T11:17:47;11.20;1.00
13375;DHT22;6756;51.354;15.754;2022-12-29T11:21:49;11.30;1.00
13375;DHT22;6756;51.354;15.754;2022-12-29T11:26:19;11.40;1.00
13375;DHT22;6756;51.354;15.754;2022-12-29T11:30:26;11.50;1.00
13375;DHT22;6756;51.354;15.754;2022-12-29T11:34:35;11.50;1.00
13375;DHT22;6756;51.354;15.754;2022-12-29T11:38:41;11.50;1.00
13375;DHT22;6756;51.354;15.754;2022-12-29T11:42:54;11.50;1.00
13375;DHT22;6756;51.354;15.754;2022-12-29T11:46:56;11.50;1.00
13375;DHT22;6756;51.354;15.754;2022-12-29T11:50:58;11.50;1.00
13375;DHT22;6756;51.354;15.754;2022-12-29T11:55:05;11.70;1.00
13375;DHT22;6756;51.354;15.754;2022-12-29T12:03:46;11.80;1.00
13375;DHT22;6756;51.354;15.754;2022-12-29T12:12:35;12.00;1.00
13375;DHT22;6756;51.354;15.754;2022-12-29T12:16:39;12.00;1.00
13375;DHT22;6756;51.354;15.754;2022-12-29T12:20:47;11.90;1.00
13375;DHT22;6756;51.354;15.754;2022-12-29T12:24:54;11.80;1.00
13375;DHT22;6756;51.354;15.754;2022-12-29T12:29:01;11.80;1.00
13375;DHT22;6756;51.354;15.754;2022-12-29T12:33:14;11.70;1.00
13375;DHT22;6756;51.354;15.754;2022-12-29T12:58:33;11.80;1.00
13375;DHT22;6756;51.354;15.754;2022-12-29T13:29:04;11.10;1.00
13375;DHT22;6756;51.354;15.754;2022-12-29T13:37:32;11.00;4.60
13375;DHT22;6756;51.354;15.754;2022-12-29T13:41:39;10.90;6.70
13375;DHT22;6756;51.354;15.754;2022-12-29T13:45:43;10.90;10.20
13375;DHT22;6756;51.354;15.754;2022-12-29T13:49:46;10.90;11.80
13375;DHT22;6756;51.354;15.754;2022-12-29T13:54:14;10.90;9.80
13375;DHT22;6756;51.354;15.754;2022-12-29T13:58:31;11.00;9.00
13375;DHT22;6756;51.354;15.754;2022-12-29T14:07:16;11.00;9.40
13375;DHT22;6756;51.354;15.754;2022-12-29T14:11:21;11.00;9.70
13375;DHT22;6756;51.354;15.754;2022-12-29T14:15:23;10.90;9.60
13375;DHT22;6756;51.354;15.754;2022-12-29T14:19:31;11.00;8.40
13375;DHT22;6756;51.354;15.754;2022-12-29T14:23:41;10.90;9.30
13375;DHT22;6756;51.354;15.754;2022-12-29T14:27:44;10.90;9.20
13375;DHT22;6756;51.354;15.754;2022-12-29T14:31:45;10.90;11.50
13375;DHT22;6756;51.354;15.754;2022-12-29T14:35:47;10.90;11.80
13375;DHT22;6756;51.354;15.754;2022-12-29T14:40:06;10.80;14.20
13375;DHT22;6756;51.354;15.754;2022-12-29T14:44:19;10.70;14.10
13375;DHT22;6756;51.354;15.754;2022-12-29T14:52:54;10.70;16.30
13375;DHT22;6756;51.354;15.754;2022-12-29T14:57:02;10.60;18.20
13375;DHT22;6756;51.354;15.754;2022-12-29T15:01:04;10.60;19.40
13375;DHT22;6756;51.354;15.754;2022-12-29T15:05:35;10.60;21.10
13375;DHT22;6756;51.354;15.754;2022-12-29T15:09:42;10.50;24.60
13375;DHT22;6756;51.354;15.754;2022-12-29T15:13:50;10.40;27.70
13375;DHT22;6756;51.354;15.754;2022-12-29T15:17:51;10.40;29.10
13375;DHT22;6756;51.354;15.754;2022-12-29T15:21:53;10.40;30.50
13375;DHT22;6756;51.354;15.754;2022-12-29T15:25:57;10.30;33.00
13375;DHT22;6756;51.354;15.754;2022-12-29T15:30:01;10.30;35.90
13375;DHT22;6756;51.354;15.754;2022-12-29T15:34:10;10.30;38.90
13375;DHT22;6756;51.354;15.754;2022-12-29T15:38:20;10.30;38.60
13375;DHT22;6756;51.354;15.754;2022-12-29T15:47:25;10.30;42.10
13375;DHT22;6756;51.354;15.754;2022-12-29T15:51:33;10.30;43.10
13375;DHT22;6756;51.354;15.754;2022-12-29T15:55:37;10.20;51.20
13375;DHT22;6756;51.354;15.754;2022-12-29T15:59:46;10.20;52.50
13375;DHT22;6756;51.354;15.754;2022-12-29T16:03:48;10.30;53.90
13375;DHT22;6756;51.354;15.754;2022-12-29T16:07:59;10.40;51.10
13375;DHT22;6756;51.354;15.754;2022-12-29T16:12:05;10.30;73.70
13375;DHT22;6756;51.354;15.754;2022-12-29T16:16:13;10.30;57.30
13375;DHT22;6756;51.354;15.754;2022-12-29T16:20:19;10.30;59.80
13375;DHT22;6756;51.354;15.754;2022-12-29T16:24:24;10.30;61.90
13375;DHT22;6756;51.354;15.754;2022-12-29T16:28:36;10.30;66.80
13375;DHT22;6756;51.354;15.754;2022-12-29T16:32:46;10.20;76.30
13375;DHT22;6756;51.354;15.754;2022-12-29T16:36:56;10.10;86.90
13375;DHT22;6756;51.354;15.754;2022-12-29T16:40:59;9.90;96.00
13375;DHT22;6756;51.354;15.754;2022-12-29T16:49:18;9.60;99.90
13375;DHT22;6756;51.354;15.754;2022-12-29T16:53:26;9.50;99.90
13375;DHT22;6756;51.354;15.754;2022-12-29T16:57:30;9.40;99.90
13375;DHT22;6756;51.354;15.754;2022-12-29T17:01:37;9.40;99.90
13375;DHT22;6756;51.354;15.754;2022-12-29T17:05:39;9.40;99.90
13375;DHT22;6756;51.354;15.754;2022-12-29T17:09:39;9.30;99.90
13375;DHT22;6756;51.354;15.754;2022-12-29T17:13:41;9.40;99.90
13375;DHT22;6756;51.354;15.754;2022-12-29T17:17:44;9.40;99.90
13375;DHT22;6756;51.354;15.754;2022-12-29T17:21:46;9.40;99.90
13375;DHT22;6756;51.354;15.754;2022-12-29T17:25:47;9.60;99.90
13375;DHT22;6756;51.354;15.754;2022-12-29T17:29:48;9.80;99.90
13375;DHT22;6756;51.354;15.754;2022-12-29T17:33:49;9.90;99.90
13375;DHT22;6756;51.354;15.754;2022-12-29T17:37:50;9.90;99.90
13375;DHT22;6756;51.354;15.754;2022-12-29T17:41:51;10.00;99.90
13375;DHT22;6756;51.354;15.754;2022-12-29T17:45:54;10.00;99.90
13375;DHT22;6756;51.354;15.754;2022-12-29T17:49:55;10.00;99.90
13375;DHT22;6756;51.354;15.754;2022-12-29T17:53:56;9.90;99.90
13375;DHT22;6756;51.354;15.754;2022-12-29T17:57:58;9.90;99.90
13375;DHT22;6756;51.354;15.754;2022-12-29T18:01:58;9.80;99.90
13375;DHT22;6756;51.354;15.754;2022-12-29T18:05:59;9.80;99.90
13375;DHT22;6756;51.354;15.754;2022-12-29T18:10:00;9.80;99.90
13375;DHT22;6756;51.354;15.754;2022-12-29T18:14:01;9.80;99.90
13375;DHT22;6756;51.354;15.754;2022-12-29T18:18:17;9.80;99.90
13375;DHT22;6756;51.354;15.754;2022-12-29T18:22:18;9.80;99.90
13375;DHT22;6756;51.354;15.754;2022-12-29T18:26:26;9.80;99.90
13375;DHT22;6756;51.354;15.754;2022-12-29T18:30:28;9.70;99.90
13375;DHT22;6756;51.354;15.754;2022-12-29T18:34:29;9.70;99.90
13375;DHT22;6756;51.354;15.754;2022-12-29T18:38:30;9.70;99.90
13375;DHT22;6756;51.354;15.754;2022-12-29T18:42:31;9.70;99.90
13375;DHT22;6756;51.354;15.754;2022-12-29T18:46:32;9.70;99.90
13375;DHT22;6756;51.354;15.754;2022-12-29T18:50:33;9.70;99.90
13375;DHT22;6756;51.354;15.754;2022-12-29T18:54:34;9.70;99.90
13375;DHT22;6756;51.354;15.754;2022-12-29T18:58:35;9.60;99.90
13375;DHT22;6756;51.354;15.754;2022-12-29T19:02:37;9.50;99.90
13375;DHT22;6756;51.354;15.754;2022-12-29T19:06:38;9.40;99.90
13375;DHT22;6756;51.354;15.754;2022-12-29T19:10:40;9.30;99.90
13375;DHT22;6756;51.354;15.754;2022-12-29T19:14:42;9.30;99.90
13375;DHT22;6756;51.354;15.754;2022-12-29T19:18:43;9.10;99.90
13375;DHT22;6756;51.354;15.754;2022-12-29T19:22:44;9.10;99.90
13375;DHT22;6756;51.354;15.754;2022-12-29T19:26:45;9.00;99.90
13375;DHT22;6756;51.354;15.754;2022-12-29T19:30:46;8.90;99.90
13375;DHT22;6756;51.354;15.754;2022-12-29T19:34:48;8.80;99.90
13375;DHT22;6756;51.354;15.754;2022-12-29T19:38:48;8.70;99.90
13375;DHT22;6756;51.354;15.754;2022-12-29T19:42:50;8.70;99.90
13375;DHT22;6756;51.354;15.754;2022-12-29T19:46:51;8.60;99.90
13375;DHT22;6756;51.354;15.754;2022-12-29T19:50:52;8.50;99.90
13375;DHT22;6756;51.354;15.754;2022-12-29T19:54:53;8.30;99.90
13375;DHT22;6756;51.354;15.754;2022-12-29T19:58:54;8.10;99.90
13375;DHT22;6756;51.354;15.754;2022-12-29T20:02:57;8.00;99.90
13375;DHT22;6756;51.354;15.754;2022-12-29T20:06:58;7.90;99.90
13375;DHT22;6756;51.354;15.754;2022-12-29T20:11:10;7.90;99.90
13375;DHT22;6756;51.354;15.754;2022-12-29T20:15:13;7.90;99.90
13375;DHT22;6756;51.354;15.754;2022-12-29T20:19:14;7.90;99.90
13375;DHT22;6756;51.354;15.754;2022-12-29T20:23:15;7.90;99.90
13375;DHT22;6756;51.354;15.754;2022-12-29T20:27:16;7.80;99.90
13375;DHT22;6756;51.354;15.754;2022-12-29T20:31:22;7.70;99.90
13375;DHT22;6756;51.354;15.754;2022-12-29T20:35:23;7.60;1.00
13375;DHT22;6756;51.354;15.754;2022-12-29T20:39:24;7.50;1.00
13375;DHT22;6756;51.354;15.754;2022-12-29T20:43:25;7.60;1.00
13375;DHT22;6756;51.354;15.754;2022-12-29T20:47:26;7.60;1.00
13375;DHT22;6756;51.354;15.754;2022-12-29T20:51:27;7.50;1.00
13375;DHT22;6756;51.354;15.754;2022-12-29T20:55:29;7.50;1.00
13375;DHT22;6756;51.354;15.754;2022-12-29T20:59:31;7.50;1.00
13375;DHT22;6756;51.354;15.754;2022-12-29T21:03:32;7.40;1.00
13375;DHT22;6756;51.354;15.754;2022-12-29T21:07:33;7.40;1.00
13375;DHT22;6756;51.354;15.754;2022-12-29T21:11:34;7.30;1.00
13375;DHT22;6756;51.354;15.754;2022-12-29T21:15:35;7.30;1.00
13375;DHT22;6756;51.354;15.754;2022-12-29T21:19:36;7.20;1.00
13375;DHT22;6756;51.354;15.754;2022-12-29T21:23:37;7.20;1.00
13375;DHT22;6756;51.354;15.754;2022-12-29T21:27:39;7.10;1.00
13375;DHT22;6756;51.354;15.754;2022-12-29T21:31:46;7.10;1.00
13375;DHT22;6756;51.354;15.754;2022-12-29T21:35:47;7.10;1.00
13375;DHT22;6756;51.354;15.754;2022-12-29T21:39:48;7.20;1.00
13375;DHT22;6756;51.354;15.754;2022-12-29T21:43:50;7.30;1.00
13375;DHT22;6756;51.354;15.754;2022-12-29T21:48:09;7.40;1.00
13375;DHT22;6756;51.354;15.754;2022-12-29T21:52:23;7.50;1.00
13375;DHT22;6756;51.354;15.754;2022-12-29T21:56:24;7.50;1.00
13375;DHT22;6756;51.354;15.754;2022-12-29T22:00:26;7.50;1.00
13375;DHT22;6756;51.354;15.754;2022-12-29T22:04:45;7.50;1.00
13375;DHT22;6756;51.354;15.754;2022-12-29T22:09:05;7.50;1.00
13375;DHT22;6756;51.354;15.754;2022-12-29T22:13:24;7.50;1.00
13375;DHT22;6756;51.354;15.754;2022-12-29T22:17:25;7.40;1.00
13375;DHT22;6756;51.354;15.754;2022-12-29T22:21:26;7.20;1.00
13375;DHT22;6756;51.354;15.754;2022-12-29T22:25:27;7.10;1.00
13375;DHT22;6756;51.354;15.754;2022-12-29T22:29:28;7.00;1.00
13375;DHT22;6756;51.354;15.754;2022-12-29T22:33:30;6.90;1.00
13375;DHT22;6756;51.354;15.754;2022-12-29T22:37:32;6.80;1.00
13375;DHT22;6756;51.354;15.754;2022-12-29T22:41:33;6.70;1.00
13375;DHT22;6756;51.354;15.754;2022-12-29T22:45:34;6.70;20.20
13375;DHT22;6756;51.354;15.754;2022-12-29T22:49:35;6.80;66.10
13375;DHT22;6756;51.354;15.754;2022-12-29T22:53:36;6.80;62.20
13375;DHT22;6756;51.354;15.754;2022-12-29T22:57:37;6.80;58.00
13375;DHT22;6756;51.354;15.754;2022-12-29T23:01:38;6.80;56.30
13375;DHT22;6756;51.354;15.754;2022-12-29T23:05:39;6.80;99.90
13375;DHT22;6756;51.354;15.754;2022-12-29T23:09:39;6.80;99.90
13375;DHT22;6756;51.354;15.754;2022-12-29T23:13:40;6.90;99.90
13375;DHT22;6756;51.354;15.754;2022-12-29T23:17:43;7.00;99.90
13375;DHT22;6756;51.354;15.754;2022-12-29T23:21:44;7.20;99.90
13375;DHT22;6756;51.354;15.754;2022-12-29T23:25:45;7.30;99.90
13375;DHT22;6756;51.354;15.754;2022-12-29T23:29:46;7.30;99.90
13375;DHT22;6756;51.354;15.754;2022-12-29T23:33:47;7.30;99.90
13375;DHT22;6756;51.354;15.754;2022-12-29T23:37:48;7.30;99.90
13375;DHT22;6756;51.354;15.754;2022-12-29T23:41:49;7.30;99.90
13375;DHT22;6756;51.354;15.754;2022-12-29T23:45:50;7.30;99.90
13375;DHT22;6756;51.354;15.754;2022-12-29T23:49:51;7.30;99.90
13375;DHT22;6756;51.354;15.754;2022-12-29T23:53:52;7.30;99.90
13375;DHT22;6756;51.354;15.754;2022-12-29T23:57:52;7.30;99.90
